sensor_id;sensor_type;location;lat;lon;timestamp;P1;durP1;ratioP1;P2;durP2;ratioP2
21091;SDS011;10704;42.678;23.288;2022-09-03T00:01:26;10.40;;;6.90;;
21091;SDS011;10704;42.678;23.288;2022-09-03T00:04:01;11.27;;;7.68;;
21091;SDS011;10704;42.678;23.288;2022-09-03T00:06:42;12.50;;;7.53;;
21091;SDS011;10704;42.678;23.288;2022-09-03T00:09:22;10.57;;;6.85;;
21091;SDS011;10704;42.678;23.288;2022-09-03T00:15:04;12.80;;;8.05;;
21091;SDS011;10704;42.678;23.288;2022-09-03T00:17:35;10.63;;;7.40;;
21091;SDS011;10704;42.678;23.288;2022-09-03T00:20:09;15.85;;;8.27;;
21091;SDS011;10704;42.678;23.288;2022-09-03T00:22:46;16.20;;;8.13;;
21091;SDS011;10704;42.678;23.288;2022-09-03T00:25:23;10.80;;;7.90;;
21091;SDS011;10704;42.678;23.288;2022-09-03T00:27:58;11.65;;;8.05;;
21091;SDS011;10704;42.678;23.288;2022-09-03T00:30:29;12.55;;;7.30;;
21091;SDS011;10704;42.678;23.288;2022-09-03T00:35:34;12.40;;;7.57;;
21091;SDS011;10704;42.678;23.288;2022-09-03T00:38:07;11.50;;;7.50;;
21091;SDS011;10704;42.678;23.288;2022-09-03T00:51:49;11.82;;;8.73;;
21091;SDS011;10704;42.678;23.288;2022-09-03T01:00:11;11.15;;;7.57;;
21091;SDS011;10704;42.678;23.288;2022-09-03T01:10:29;11.85;;;7.88;;
21091;SDS011;10704;42.678;23.288;2022-09-03T01:13:18;11.90;;;7.15;;
21091;SDS011;10704;42.678;23.288;2022-09-03T01:19:03;11.57;;;7.70;;
21091;SDS011;10704;42.678;23.288;2022-09-03T01:30:32;14.60;;;8.23;;
21091;SDS011;10704;42.678;23.288;2022-09-03T01:36:01;13.60;;;8.65;;
21091;SDS011;10704;42.678;23.288;2022-09-03T01:38:33;13.70;;;8.75;;
21091;SDS011;10704;42.678;23.288;2022-09-03T01:46:41;11.95;;;7.97;;
21091;SDS011;10704;42.678;23.288;2022-09-03T01:49:57;12.93;;;7.90;;
21091;SDS011;10704;42.678;23.288;2022-09-03T01:52:15;13.90;;;8.50;;
21091;SDS011;10704;42.678;23.288;2022-09-03T01:57:44;12.98;;;8.45;;
21091;SDS011;10704;42.678;23.288;2022-09-03T02:00:20;10.20;;;6.95;;
21091;SDS011;10704;42.678;23.288;2022-09-03T02:02:48;13.88;;;9.57;;
21091;SDS011;10704;42.678;23.288;2022-09-03T02:07:44;11.52;;;7.82;;
21091;SDS011;10704;42.678;23.288;2022-09-03T02:10:16;11.27;;;7.15;;
21091;SDS011;10704;42.678;23.288;2022-09-03T02:12:50;10.73;;;7.38;;
21091;SDS011;10704;42.678;23.288;2022-09-03T02:15:19;11.00;;;7.13;;
21091;SDS011;10704;42.678;23.288;2022-09-03T02:17:47;11.70;;;7.75;;
21091;SDS011;10704;42.678;23.288;2022-09-03T02:20:18;11.77;;;8.05;;
21091;SDS011;10704;42.678;23.288;2022-09-03T02:22:47;12.13;;;8.45;;
21091;SDS011;10704;42.678;23.288;2022-09-03T02:25:14;11.43;;;7.70;;
21091;SDS011;10704;42.678;23.288;2022-09-03T02:27:43;11.95;;;7.93;;
21091;SDS011;10704;42.678;23.288;2022-09-03T02:30:10;14.52;;;9.02;;
21091;SDS011;10704;42.678;23.288;2022-09-03T02:32:36;13.57;;;8.27;;
21091;SDS011;10704;42.678;23.288;2022-09-03T02:35:02;13.57;;;8.23;;
21091;SDS011;10704;42.678;23.288;2022-09-03T02:37:29;12.85;;;8.00;;
21091;SDS011;10704;42.678;23.288;2022-09-03T02:39:55;10.90;;;7.20;;
21091;SDS011;10704;42.678;23.288;2022-09-03T02:42:21;13.20;;;8.35;;
21091;SDS011;10704;42.678;23.288;2022-09-03T02:44:47;12.00;;;7.82;;
21091;SDS011;10704;42.678;23.288;2022-09-03T02:47:17;13.15;;;8.02;;
21091;SDS011;10704;42.678;23.288;2022-09-03T02:49:46;11.07;;;7.75;;
21091;SDS011;10704;42.678;23.288;2022-09-03T02:52:13;12.25;;;7.75;;
21091;SDS011;10704;42.678;23.288;2022-09-03T02:54:39;12.65;;;8.00;;
21091;SDS011;10704;42.678;23.288;2022-09-03T02:57:06;12.82;;;7.25;;
21091;SDS011;10704;42.678;23.288;2022-09-03T02:59:33;13.85;;;8.48;;
21091;SDS011;10704;42.678;23.288;2022-09-03T03:02:00;12.10;;;8.32;;
21091;SDS011;10704;42.678;23.288;2022-09-03T03:04:27;14.50;;;8.60;;
21091;SDS011;10704;42.678;23.288;2022-09-03T03:06:53;13.20;;;8.48;;
21091;SDS011;10704;42.678;23.288;2022-09-03T03:09:20;15.50;;;8.77;;
21091;SDS011;10704;42.678;23.288;2022-09-03T03:11:46;12.80;;;8.85;;
21091;SDS011;10704;42.678;23.288;2022-09-03T03:14:14;13.55;;;8.10;;
21091;SDS011;10704;42.678;23.288;2022-09-03T03:16:40;16.90;;;9.23;;
21091;SDS011;10704;42.678;23.288;2022-09-03T03:19:06;15.73;;;8.00;;
21091;SDS011;10704;42.678;23.288;2022-09-03T03:21:32;12.90;;;8.50;;
21091;SDS011;10704;42.678;23.288;2022-09-03T03:23:59;14.77;;;8.98;;
21091;SDS011;10704;42.678;23.288;2022-09-03T03:26:26;13.82;;;8.55;;
21091;SDS011;10704;42.678;23.288;2022-09-03T03:28:56;12.25;;;8.20;;
21091;SDS011;10704;42.678;23.288;2022-09-03T03:31:23;14.35;;;9.55;;
21091;SDS011;10704;42.678;23.288;2022-09-03T03:33:50;13.85;;;9.35;;
21091;SDS011;10704;42.678;23.288;2022-09-03T03:36:17;17.33;;;9.18;;
21091;SDS011;10704;42.678;23.288;2022-09-03T03:38:44;14.57;;;8.65;;
21091;SDS011;10704;42.678;23.288;2022-09-03T03:41:12;12.35;;;8.63;;
21091;SDS011;10704;42.678;23.288;2022-09-03T03:43:42;14.15;;;9.70;;
21091;SDS011;10704;42.678;23.288;2022-09-03T03:46:09;15.00;;;9.13;;
21091;SDS011;10704;42.678;23.288;2022-09-03T03:48:35;18.42;;;10.30;;
21091;SDS011;10704;42.678;23.288;2022-09-03T03:51:03;12.98;;;8.90;;
21091;SDS011;10704;42.678;23.288;2022-09-03T03:53:32;12.93;;;8.80;;
21091;SDS011;10704;42.678;23.288;2022-09-03T03:56:00;12.93;;;8.95;;
21091;SDS011;10704;42.678;23.288;2022-09-03T03:58:28;13.25;;;8.82;;
21091;SDS011;10704;42.678;23.288;2022-09-03T04:01:02;16.52;;;9.32;;
21091;SDS011;10704;42.678;23.288;2022-09-03T04:03:34;12.38;;;8.05;;
21091;SDS011;10704;42.678;23.288;2022-09-03T04:06:00;13.50;;;9.05;;
21091;SDS011;10704;42.678;23.288;2022-09-03T04:08:27;13.85;;;8.50;;
21091;SDS011;10704;42.678;23.288;2022-09-03T04:10:53;13.23;;;8.13;;
21091;SDS011;10704;42.678;23.288;2022-09-03T04:13:23;10.77;;;8.15;;
21091;SDS011;10704;42.678;23.288;2022-09-03T04:15:58;13.15;;;8.63;;
21091;SDS011;10704;42.678;23.288;2022-09-03T04:18:29;11.57;;;7.40;;
21091;SDS011;10704;42.678;23.288;2022-09-03T04:21:02;12.98;;;8.18;;
21091;SDS011;10704;42.678;23.288;2022-09-03T04:23:33;13.05;;;8.88;;
21091;SDS011;10704;42.678;23.288;2022-09-03T04:26:01;13.63;;;9.07;;
21091;SDS011;10704;42.678;23.288;2022-09-03T04:28:27;13.52;;;8.77;;
21091;SDS011;10704;42.678;23.288;2022-09-03T04:30:54;10.77;;;7.90;;
21091;SDS011;10704;42.678;23.288;2022-09-03T04:33:24;13.68;;;9.20;;
21091;SDS011;10704;42.678;23.288;2022-09-03T04:35:50;16.42;;;9.52;;
21091;SDS011;10704;42.678;23.288;2022-09-03T04:38:16;13.73;;;8.73;;
21091;SDS011;10704;42.678;23.288;2022-09-03T04:40:42;13.27;;;8.57;;
21091;SDS011;10704;42.678;23.288;2022-09-03T04:43:08;13.45;;;8.52;;
21091;SDS011;10704;42.678;23.288;2022-09-03T04:45:33;12.63;;;8.55;;
21091;SDS011;10704;42.678;23.288;2022-09-03T04:48:00;13.88;;;8.07;;
21091;SDS011;10704;42.678;23.288;2022-09-03T04:50:27;13.27;;;8.30;;
21091;SDS011;10704;42.678;23.288;2022-09-03T04:53:01;14.65;;;8.40;;
21091;SDS011;10704;42.678;23.288;2022-09-03T04:55:35;13.30;;;8.00;;
21091;SDS011;10704;42.678;23.288;2022-09-03T04:58:02;14.00;;;9.27;;
21091;SDS011;10704;42.678;23.288;2022-09-03T05:00:28;13.00;;;7.55;;
21091;SDS011;10704;42.678;23.288;2022-09-03T05:02:55;12.35;;;8.00;;
21091;SDS011;10704;42.678;23.288;2022-09-03T05:05:24;14.15;;;8.77;;
21091;SDS011;10704;42.678;23.288;2022-09-03T05:07:50;14.55;;;8.18;;
21091;SDS011;10704;42.678;23.288;2022-09-03T05:10:16;14.95;;;8.18;;
21091;SDS011;10704;42.678;23.288;2022-09-03T05:12:56;14.65;;;8.63;;
21091;SDS011;10704;42.678;23.288;2022-09-03T05:15:27;12.00;;;7.93;;
21091;SDS011;10704;42.678;23.288;2022-09-03T05:17:57;13.63;;;8.65;;
21091;SDS011;10704;42.678;23.288;2022-09-03T05:20:26;13.27;;;8.52;;
21091;SDS011;10704;42.678;23.288;2022-09-03T05:22:54;12.68;;;8.15;;
21091;SDS011;10704;42.678;23.288;2022-09-03T05:25:30;13.80;;;8.25;;
21091;SDS011;10704;42.678;23.288;2022-09-03T05:27:56;13.85;;;8.10;;
21091;SDS011;10704;42.678;23.288;2022-09-03T05:30:23;13.05;;;8.70;;
21091;SDS011;10704;42.678;23.288;2022-09-03T05:32:50;11.70;;;8.20;;
21091;SDS011;10704;42.678;23.288;2022-09-03T05:35:16;15.25;;;8.98;;
21091;SDS011;10704;42.678;23.288;2022-09-03T05:37:42;12.98;;;8.90;;
21091;SDS011;10704;42.678;23.288;2022-09-03T05:40:09;10.80;;;7.75;;
21091;SDS011;10704;42.678;23.288;2022-09-03T05:42:38;13.02;;;8.02;;
21091;SDS011;10704;42.678;23.288;2022-09-03T05:45:08;10.40;;;7.38;;
21091;SDS011;10704;42.678;23.288;2022-09-03T05:47:38;11.88;;;7.85;;
21091;SDS011;10704;42.678;23.288;2022-09-03T05:50:05;11.02;;;7.53;;
21091;SDS011;10704;42.678;23.288;2022-09-03T05:52:33;14.38;;;9.13;;
21091;SDS011;10704;42.678;23.288;2022-09-03T05:55:00;11.13;;;7.50;;
21091;SDS011;10704;42.678;23.288;2022-09-03T05:57:26;10.13;;;6.82;;
21091;SDS011;10704;42.678;23.288;2022-09-03T05:59:53;10.63;;;6.82;;
21091;SDS011;10704;42.678;23.288;2022-09-03T06:02:19;11.02;;;6.68;;
21091;SDS011;10704;42.678;23.288;2022-09-03T06:04:45;11.63;;;6.90;;
21091;SDS011;10704;42.678;23.288;2022-09-03T06:07:11;9.60;;;6.80;;
21091;SDS011;10704;42.678;23.288;2022-09-03T06:09:37;10.60;;;7.20;;
21091;SDS011;10704;42.678;23.288;2022-09-03T06:12:03;9.15;;;6.93;;
21091;SDS011;10704;42.678;23.288;2022-09-03T06:14:29;12.43;;;6.85;;
21091;SDS011;10704;42.678;23.288;2022-09-03T06:16:55;9.35;;;6.68;;
21091;SDS011;10704;42.678;23.288;2022-09-03T06:19:21;10.00;;;6.78;;
21091;SDS011;10704;42.678;23.288;2022-09-03T06:21:47;9.20;;;6.65;;
21091;SDS011;10704;42.678;23.288;2022-09-03T06:24:17;11.25;;;7.07;;
21091;SDS011;10704;42.678;23.288;2022-09-03T06:26:46;9.35;;;6.43;;
21091;SDS011;10704;42.678;23.288;2022-09-03T06:29:12;10.30;;;6.63;;
21091;SDS011;10704;42.678;23.288;2022-09-03T06:31:40;10.98;;;6.97;;
21091;SDS011;10704;42.678;23.288;2022-09-03T06:34:06;11.10;;;7.82;;
21091;SDS011;10704;42.678;23.288;2022-09-03T06:36:32;8.85;;;6.78;;
21091;SDS011;10704;42.678;23.288;2022-09-03T06:38:58;9.85;;;7.18;;
21091;SDS011;10704;42.678;23.288;2022-09-03T06:41:25;10.35;;;7.43;;
21091;SDS011;10704;42.678;23.288;2022-09-03T06:43:57;9.88;;;7.05;;
21091;SDS011;10704;42.678;23.288;2022-09-03T06:46:27;8.55;;;6.25;;
21091;SDS011;10704;42.678;23.288;2022-09-03T06:48:55;10.25;;;7.03;;
21091;SDS011;10704;42.678;23.288;2022-09-03T06:51:22;11.80;;;6.78;;
21091;SDS011;10704;42.678;23.288;2022-09-03T06:53:51;8.57;;;6.32;;
21091;SDS011;10704;42.678;23.288;2022-09-03T06:56:20;11.50;;;7.30;;
21091;SDS011;10704;42.678;23.288;2022-09-03T06:58:58;12.70;;;7.95;;
21091;SDS011;10704;42.678;23.288;2022-09-03T07:01:29;8.50;;;6.63;;
21091;SDS011;10704;42.678;23.288;2022-09-03T07:03:57;9.77;;;6.90;;
21091;SDS011;10704;42.678;23.288;2022-09-03T07:06:28;9.48;;;7.10;;
21091;SDS011;10704;42.678;23.288;2022-09-03T07:09:01;10.00;;;7.25;;
21091;SDS011;10704;42.678;23.288;2022-09-03T07:11:28;11.07;;;6.97;;
21091;SDS011;10704;42.678;23.288;2022-09-03T07:13:56;11.00;;;7.75;;
21091;SDS011;10704;42.678;23.288;2022-09-03T07:16:23;9.50;;;6.78;;
21091;SDS011;10704;42.678;23.288;2022-09-03T07:18:51;10.63;;;7.63;;
21091;SDS011;10704;42.678;23.288;2022-09-03T07:21:19;9.65;;;7.22;;
21091;SDS011;10704;42.678;23.288;2022-09-03T07:23:53;10.13;;;7.28;;
21091;SDS011;10704;42.678;23.288;2022-09-03T07:26:21;9.50;;;6.63;;
21091;SDS011;10704;42.678;23.288;2022-09-03T07:28:52;10.02;;;7.15;;
21091;SDS011;10704;42.678;23.288;2022-09-03T07:31:23;10.25;;;6.72;;
21091;SDS011;10704;42.678;23.288;2022-09-03T07:33:54;11.23;;;6.93;;
21091;SDS011;10704;42.678;23.288;2022-09-03T07:36:25;10.38;;;6.82;;
21091;SDS011;10704;42.678;23.288;2022-09-03T07:38:56;13.40;;;9.27;;
21091;SDS011;10704;42.678;23.288;2022-09-03T07:41:23;23.88;;;13.90;;
21091;SDS011;10704;42.678;23.288;2022-09-03T07:43:50;36.50;;;20.38;;
21091;SDS011;10704;42.678;23.288;2022-09-03T07:46:17;31.25;;;19.60;;
21091;SDS011;10704;42.678;23.288;2022-09-03T07:48:52;18.98;;;12.32;;
21091;SDS011;10704;42.678;23.288;2022-09-03T07:51:20;15.13;;;10.93;;
21091;SDS011;10704;42.678;23.288;2022-09-03T07:53:55;13.13;;;9.50;;
21091;SDS011;10704;42.678;23.288;2022-09-03T07:56:23;14.50;;;10.43;;
21091;SDS011;10704;42.678;23.288;2022-09-03T07:58:50;14.70;;;9.73;;
21091;SDS011;10704;42.678;23.288;2022-09-03T08:01:18;10.93;;;7.10;;
21091;SDS011;10704;42.678;23.288;2022-09-03T08:03:46;11.20;;;7.43;;
21091;SDS011;10704;42.678;23.288;2022-09-03T08:06:14;9.32;;;5.93;;
21091;SDS011;10704;42.678;23.288;2022-09-03T08:08:41;14.30;;;9.73;;
21091;SDS011;10704;42.678;23.288;2022-09-03T08:13:57;9.98;;;6.45;;
21091;SDS011;10704;42.678;23.288;2022-09-03T08:16:30;7.07;;;5.30;;
21091;SDS011;10704;42.678;23.288;2022-09-03T08:18:58;9.65;;;6.50;;
21091;SDS011;10704;42.678;23.288;2022-09-03T08:21:24;7.75;;;5.90;;
21091;SDS011;10704;42.678;23.288;2022-09-03T08:23:52;7.85;;;5.32;;
21091;SDS011;10704;42.678;23.288;2022-09-03T08:26:26;7.18;;;4.95;;
21091;SDS011;10704;42.678;23.288;2022-09-03T08:28:56;7.32;;;5.57;;
21091;SDS011;10704;42.678;23.288;2022-09-03T08:31:23;7.22;;;5.93;;
21091;SDS011;10704;42.678;23.288;2022-09-03T08:33:52;7.85;;;5.63;;
21091;SDS011;10704;42.678;23.288;2022-09-03T08:36:28;8.25;;;5.78;;
21091;SDS011;10704;42.678;23.288;2022-09-03T08:38:56;8.27;;;6.25;;
21091;SDS011;10704;42.678;23.288;2022-09-03T08:52:42;6.65;;;5.13;;
21091;SDS011;10704;42.678;23.288;2022-09-03T08:55:34;7.55;;;5.22;;
21091;SDS011;10704;42.678;23.288;2022-09-03T09:14:09;8.43;;;6.32;;
21091;SDS011;10704;42.678;23.288;2022-09-03T09:19:40;6.78;;;5.10;;
21091;SDS011;10704;42.678;23.288;2022-09-03T09:22:24;6.25;;;4.32;;
21091;SDS011;10704;42.678;23.288;2022-09-03T09:25:11;6.75;;;5.15;;
21091;SDS011;10704;42.678;23.288;2022-09-03T09:27:51;7.40;;;5.68;;
21091;SDS011;10704;42.678;23.288;2022-09-03T09:30:23;13.63;;;6.75;;
21091;SDS011;10704;42.678;23.288;2022-09-03T09:32:49;11.43;;;5.88;;
21091;SDS011;10704;42.678;23.288;2022-09-03T09:35:15;7.03;;;5.25;;
21091;SDS011;10704;42.678;23.288;2022-09-03T09:37:49;5.70;;;4.60;;
21091;SDS011;10704;42.678;23.288;2022-09-03T09:40:25;7.68;;;4.85;;
21091;SDS011;10704;42.678;23.288;2022-09-03T09:43:06;6.22;;;4.85;;
21091;SDS011;10704;42.678;23.288;2022-09-03T09:45:38;6.75;;;5.30;;
21091;SDS011;10704;42.678;23.288;2022-09-03T09:48:10;9.40;;;5.82;;
21091;SDS011;10704;42.678;23.288;2022-09-03T09:54:03;8.80;;;5.30;;
21091;SDS011;10704;42.678;23.288;2022-09-03T09:56:42;7.65;;;5.30;;
21091;SDS011;10704;42.678;23.288;2022-09-03T09:59:09;9.52;;;5.65;;
21091;SDS011;10704;42.678;23.288;2022-09-03T10:01:40;9.85;;;5.88;;
21091;SDS011;10704;42.678;23.288;2022-09-03T10:04:22;6.72;;;5.50;;
21091;SDS011;10704;42.678;23.288;2022-09-03T10:06:55;9.80;;;6.63;;
21091;SDS011;10704;42.678;23.288;2022-09-03T10:09:29;9.30;;;5.07;;
21091;SDS011;10704;42.678;23.288;2022-09-03T10:14:39;8.60;;;6.15;;
21091;SDS011;10704;42.678;23.288;2022-09-03T10:20:11;6.38;;;5.00;;
21091;SDS011;10704;42.678;23.288;2022-09-03T10:28:32;6.90;;;5.50;;
21091;SDS011;10704;42.678;23.288;2022-09-03T10:45:52;5.72;;;4.07;;
21091;SDS011;10704;42.678;23.288;2022-09-03T10:48:27;5.80;;;4.88;;
21091;SDS011;10704;42.678;23.288;2022-09-03T10:51:12;5.80;;;4.53;;
21091;SDS011;10704;42.678;23.288;2022-09-03T10:59:27;6.45;;;4.78;;
21091;SDS011;10704;42.678;23.288;2022-09-03T11:04:58;6.45;;;4.70;;
21091;SDS011;10704;42.678;23.288;2022-09-03T11:07:35;6.82;;;4.65;;
21091;SDS011;10704;42.678;23.288;2022-09-03T11:12:51;6.82;;;4.60;;
21091;SDS011;10704;42.678;23.288;2022-09-03T11:18:02;6.47;;;5.10;;
21091;SDS011;10704;42.678;23.288;2022-09-03T11:20:44;5.28;;;4.45;;
21091;SDS011;10704;42.678;23.288;2022-09-03T11:23:13;7.15;;;5.00;;
21091;SDS011;10704;42.678;23.288;2022-09-03T11:25:42;5.22;;;4.38;;
21091;SDS011;10704;42.678;23.288;2022-09-03T11:28:29;7.57;;;5.13;;
21091;SDS011;10704;42.678;23.288;2022-09-03T11:31:05;5.53;;;4.35;;
21091;SDS011;10704;42.678;23.288;2022-09-03T11:33:45;5.30;;;4.63;;
21091;SDS011;10704;42.678;23.288;2022-09-03T11:36:22;6.68;;;5.28;;
21091;SDS011;10704;42.678;23.288;2022-09-03T11:38:57;8.23;;;5.40;;
21091;SDS011;10704;42.678;23.288;2022-09-03T11:41:31;8.38;;;4.85;;
21091;SDS011;10704;42.678;23.288;2022-09-03T11:45:10;5.05;;;4.15;;
21091;SDS011;10704;42.678;23.288;2022-09-03T11:47:11;6.60;;;5.13;;
21091;SDS011;10704;42.678;23.288;2022-09-03T11:50:04;6.38;;;4.90;;
21091;SDS011;10704;42.678;23.288;2022-09-03T11:52:33;6.50;;;5.05;;
21091;SDS011;10704;42.678;23.288;2022-09-03T11:55:05;5.93;;;4.72;;
21091;SDS011;10704;42.678;23.288;2022-09-03T11:57:32;5.95;;;4.50;;
21091;SDS011;10704;42.678;23.288;2022-09-03T12:00:14;8.60;;;4.65;;
21091;SDS011;10704;42.678;23.288;2022-09-03T12:02:56;6.63;;;4.35;;
21091;SDS011;10704;42.678;23.288;2022-09-03T12:19:14;7.28;;;5.10;;
21091;SDS011;10704;42.678;23.288;2022-09-03T12:22:01;5.78;;;4.25;;
21091;SDS011;10704;42.678;23.288;2022-09-03T12:24:28;5.20;;;3.83;;
21091;SDS011;10704;42.678;23.288;2022-09-03T12:26:59;5.53;;;4.50;;
21091;SDS011;10704;42.678;23.288;2022-09-03T12:29:27;6.93;;;5.57;;
21091;SDS011;10704;42.678;23.288;2022-09-03T12:31:55;7.25;;;4.88;;
21091;SDS011;10704;42.678;23.288;2022-09-03T12:34:30;9.05;;;5.70;;
21091;SDS011;10704;42.678;23.288;2022-09-03T12:36:56;5.88;;;4.45;;
21091;SDS011;10704;42.678;23.288;2022-09-03T12:39:23;7.53;;;5.05;;
21091;SDS011;10704;42.678;23.288;2022-09-03T12:44:32;10.70;;;6.15;;
21091;SDS011;10704;42.678;23.288;2022-09-03T12:47:09;10.23;;;5.20;;
21091;SDS011;10704;42.678;23.288;2022-09-03T12:49:39;5.00;;;3.78;;
21091;SDS011;10704;42.678;23.288;2022-09-03T12:52:14;5.75;;;4.38;;
21091;SDS011;10704;42.678;23.288;2022-09-03T12:54:43;5.57;;;3.88;;
21091;SDS011;10704;42.678;23.288;2022-09-03T12:57:24;6.95;;;5.20;;
21091;SDS011;10704;42.678;23.288;2022-09-03T12:59:56;8.02;;;5.72;;
21091;SDS011;10704;42.678;23.288;2022-09-03T13:02:29;6.07;;;5.07;;
21091;SDS011;10704;42.678;23.288;2022-09-03T13:05:03;8.05;;;5.18;;
21091;SDS011;10704;42.678;23.288;2022-09-03T13:07:31;6.40;;;5.05;;
21091;SDS011;10704;42.678;23.288;2022-09-03T13:10:05;5.45;;;4.10;;
21091;SDS011;10704;42.678;23.288;2022-09-03T13:12:42;5.70;;;4.32;;
21091;SDS011;10704;42.678;23.288;2022-09-03T13:15:21;6.82;;;4.80;;
21091;SDS011;10704;42.678;23.288;2022-09-03T13:26:03;5.53;;;4.03;;
21091;SDS011;10704;42.678;23.288;2022-09-03T13:28:47;8.35;;;4.88;;
21091;SDS011;10704;42.678;23.288;2022-09-03T13:31:37;6.55;;;4.53;;
21091;SDS011;10704;42.678;23.288;2022-09-03T13:34:30;5.40;;;4.20;;
21091;SDS011;10704;42.678;23.288;2022-09-03T13:36:58;5.68;;;4.22;;
21091;SDS011;10704;42.678;23.288;2022-09-03T13:39:52;8.13;;;4.25;;
21091;SDS011;10704;42.678;23.288;2022-09-03T13:42:38;5.68;;;3.78;;
21091;SDS011;10704;42.678;23.288;2022-09-03T13:47:57;4.00;;;2.83;;
21091;SDS011;10704;42.678;23.288;2022-09-03T13:54:03;7.95;;;4.10;;
21091;SDS011;10704;42.678;23.288;2022-09-03T13:59:39;6.75;;;4.30;;
21091;SDS011;10704;42.678;23.288;2022-09-03T14:19:32;5.53;;;4.32;;
21091;SDS011;10704;42.678;23.288;2022-09-03T14:24:58;6.78;;;4.57;;
21091;SDS011;10704;42.678;23.288;2022-09-03T14:27:54;6.28;;;4.55;;
21091;SDS011;10704;42.678;23.288;2022-09-03T14:30:53;6.13;;;4.07;;
21091;SDS011;10704;42.678;23.288;2022-09-03T14:33:42;6.72;;;4.32;;
21091;SDS011;10704;42.678;23.288;2022-09-03T14:39:07;6.50;;;4.53;;
21091;SDS011;10704;42.678;23.288;2022-09-03T14:52:25;7.03;;;4.38;;
21091;SDS011;10704;42.678;23.288;2022-09-03T14:55:58;6.05;;;3.97;;
21091;SDS011;10704;42.678;23.288;2022-09-03T15:03:31;6.97;;;3.60;;
21091;SDS011;10704;42.678;23.288;2022-09-03T15:11:31;5.53;;;3.67;;
21091;SDS011;10704;42.678;23.288;2022-09-03T15:14:25;6.05;;;4.00;;
21091;SDS011;10704;42.678;23.288;2022-09-03T15:17:00;5.20;;;3.30;;
21091;SDS011;10704;42.678;23.288;2022-09-03T15:31:01;7.13;;;4.00;;
21091;SDS011;10704;42.678;23.288;2022-09-03T15:36:39;7.32;;;3.90;;
21091;SDS011;10704;42.678;23.288;2022-09-03T15:39:10;8.63;;;6.22;;
21091;SDS011;10704;42.678;23.288;2022-09-03T15:41:45;8.80;;;4.50;;
21091;SDS011;10704;42.678;23.288;2022-09-03T15:44:50;7.90;;;4.35;;
21091;SDS011;10704;42.678;23.288;2022-09-03T15:47:48;9.13;;;4.43;;
21091;SDS011;10704;42.678;23.288;2022-09-03T15:55:41;9.70;;;4.85;;
21091;SDS011;10704;42.678;23.288;2022-09-03T16:01:02;7.85;;;4.63;;
21091;SDS011;10704;42.678;23.288;2022-09-03T16:03:40;8.55;;;6.03;;
21091;SDS011;10704;42.678;23.288;2022-09-03T16:06:48;10.40;;;5.53;;
21091;SDS011;10704;42.678;23.288;2022-09-03T16:15:06;7.85;;;5.32;;
21091;SDS011;10704;42.678;23.288;2022-09-03T16:17:37;9.48;;;5.97;;
21091;SDS011;10704;42.678;23.288;2022-09-03T16:23:01;11.18;;;6.70;;
21091;SDS011;10704;42.678;23.288;2022-09-03T16:28:26;10.50;;;5.97;;
21091;SDS011;10704;42.678;23.288;2022-09-03T16:34:02;10.02;;;6.93;;
21091;SDS011;10704;42.678;23.288;2022-09-03T16:39:32;9.27;;;5.63;;
21091;SDS011;10704;42.678;23.288;2022-09-03T16:47:08;12.45;;;7.80;;
21091;SDS011;10704;42.678;23.288;2022-09-03T16:58:34;11.98;;;7.70;;
21091;SDS011;10704;42.678;23.288;2022-09-03T17:12:39;8.38;;;6.43;;
21091;SDS011;10704;42.678;23.288;2022-09-03T17:21:10;13.55;;;8.20;;
21091;SDS011;10704;42.678;23.288;2022-09-03T17:26:26;12.57;;;7.72;;
21091;SDS011;10704;42.678;23.288;2022-09-03T17:33:56;9.68;;;7.07;;
21091;SDS011;10704;42.678;23.288;2022-09-03T17:36:27;11.18;;;7.00;;
21091;SDS011;10704;42.678;23.288;2022-09-03T17:49:56;9.70;;;7.32;;
21091;SDS011;10704;42.678;23.288;2022-09-03T17:57:49;9.40;;;7.57;;
21091;SDS011;10704;42.678;23.288;2022-09-03T18:00:32;12.55;;;8.82;;
21091;SDS011;10704;42.678;23.288;2022-09-03T18:03:29;10.48;;;7.85;;
21091;SDS011;10704;42.678;23.288;2022-09-03T18:05:59;13.65;;;7.95;;
21091;SDS011;10704;42.678;23.288;2022-09-03T18:08:45;12.32;;;8.45;;
21091;SDS011;10704;42.678;23.288;2022-09-03T18:11:33;14.20;;;10.43;;
21091;SDS011;10704;42.678;23.288;2022-09-03T18:16:33;11.32;;;8.35;;
21091;SDS011;10704;42.678;23.288;2022-09-03T18:19:12;11.23;;;8.45;;
21091;SDS011;10704;42.678;23.288;2022-09-03T18:21:53;11.82;;;9.02;;
21091;SDS011;10704;42.678;23.288;2022-09-03T18:24:51;14.55;;;9.45;;
21091;SDS011;10704;42.678;23.288;2022-09-03T18:27:40;11.75;;;8.80;;
21091;SDS011;10704;42.678;23.288;2022-09-03T18:30:29;13.90;;;9.93;;
21091;SDS011;10704;42.678;23.288;2022-09-03T18:33:16;13.48;;;9.13;;
21091;SDS011;10704;42.678;23.288;2022-09-03T18:36:12;12.27;;;8.55;;
21091;SDS011;10704;42.678;23.288;2022-09-03T18:39:10;14.75;;;8.98;;
21091;SDS011;10704;42.678;23.288;2022-09-03T18:51:00;15.82;;;10.20;;
21091;SDS011;10704;42.678;23.288;2022-09-03T18:56:50;16.10;;;11.25;;
21091;SDS011;10704;42.678;23.288;2022-09-03T19:09:06;16.88;;;11.40;;
21091;SDS011;10704;42.678;23.288;2022-09-03T19:15:41;19.75;;;13.85;;
21091;SDS011;10704;42.678;23.288;2022-09-03T19:21:46;24.17;;;16.50;;
21091;SDS011;10704;42.678;23.288;2022-09-03T19:24:35;24.27;;;14.40;;
21091;SDS011;10704;42.678;23.288;2022-09-03T19:30:28;19.73;;;13.38;;
21091;SDS011;10704;42.678;23.288;2022-09-03T19:33:29;19.40;;;12.13;;
21091;SDS011;10704;42.678;23.288;2022-09-03T19:45:59;18.70;;;11.52;;
21091;SDS011;10704;42.678;23.288;2022-09-03T19:52:26;19.27;;;12.18;;
21091;SDS011;10704;42.678;23.288;2022-09-03T19:55:35;18.05;;;10.98;;
21091;SDS011;10704;42.678;23.288;2022-09-03T19:58:55;21.30;;;11.35;;
21091;SDS011;10704;42.678;23.288;2022-09-03T20:01:52;16.48;;;10.88;;
21091;SDS011;10704;42.678;23.288;2022-09-03T20:04:38;16.33;;;11.27;;
21091;SDS011;10704;42.678;23.288;2022-09-03T20:07:28;18.40;;;11.07;;
21091;SDS011;10704;42.678;23.288;2022-09-03T20:10:15;15.60;;;11.10;;
21091;SDS011;10704;42.678;23.288;2022-09-03T20:21:22;16.73;;;11.10;;
21091;SDS011;10704;42.678;23.288;2022-09-03T20:32:10;18.15;;;11.27;;
21091;SDS011;10704;42.678;23.288;2022-09-03T20:34:54;18.52;;;10.02;;
21091;SDS011;10704;42.678;23.288;2022-09-03T20:43:37;14.77;;;9.80;;
21091;SDS011;10704;42.678;23.288;2022-09-03T20:46:28;18.90;;;10.32;;
21091;SDS011;10704;42.678;23.288;2022-09-03T20:49:29;17.02;;;10.88;;
21091;SDS011;10704;42.678;23.288;2022-09-03T20:52:20;15.60;;;9.98;;
21091;SDS011;10704;42.678;23.288;2022-09-03T20:55:11;16.02;;;10.10;;
21091;SDS011;10704;42.678;23.288;2022-09-03T20:57:46;18.27;;;11.55;;
21091;SDS011;10704;42.678;23.288;2022-09-03T21:00:26;15.60;;;11.43;;
21091;SDS011;10704;42.678;23.288;2022-09-03T21:24:04;15.88;;;12.18;;
21091;SDS011;10704;42.678;23.288;2022-09-03T21:26:52;15.65;;;10.88;;
21091;SDS011;10704;42.678;23.288;2022-09-03T21:29:25;17.08;;;11.70;;
21091;SDS011;10704;42.678;23.288;2022-09-03T21:34:28;21.48;;;13.38;;
21091;SDS011;10704;42.678;23.288;2022-09-03T21:36:58;19.70;;;12.65;;
21091;SDS011;10704;42.678;23.288;2022-09-03T21:39:31;20.15;;;13.10;;
21091;SDS011;10704;42.678;23.288;2022-09-03T21:42:17;21.85;;;12.35;;
21091;SDS011;10704;42.678;23.288;2022-09-03T21:48:16;18.10;;;12.43;;
21091;SDS011;10704;42.678;23.288;2022-09-03T21:53:28;18.70;;;12.45;;